Huaco, Argentina
Current Conditions -  °F | °C
As of 7:00 AM on Thursday 23 Oct 2014 (Local Time) from SCSE Reporting Station
Moderate Fog Moderate Fog  
Wind Chill: 54°   Ceiling: 400
Heat Index: 54°   Visibility: 2.5mi
Dew Point: 54°   Wind: 1mph
Humidity: 100%   Direction: NA
Pressure: 29.97"   Gusts: NA
Location:  30.15°S, 68.52°W
Report Text: SCSE 231000Z VRB01KT 4000 VCFG OVC004 12/12 Q1015
Loading
Personal Weather Stations






























Interactive Weather Map
Tropical Storm Tracking
New forecast layout! Learn more

10-Day Weather Forecast

Advertisements
Track Severe Weather on mobile